Time;durP1;ratioP1;P1;durP2;ratioP2;P2;SDS_P1;SDS_P2;PMS_P1;PMS_P2;Temp;Humidity;BMP_temperature;BMP_pressure;BME280_temperature;BME280_humidity;BME280_pressure;Samples;Min_cycle;Max_cycle;Signal;HPM_P1;HPM_P2
2023/12/28 00:00:44;;;;;;;2.50;1.60;;;;;;;;;;5029497;28;20032;-76
2023/12/28 00:03:10;;;;;;;6.53;1.70;;;;;;;;;;5036202;28;20036;-75
2023/12/28 00:05:38;;;;;;;5.38;1.80;;;;;;;;;;5028495;28;20032;-75
2023/12/28 00:08:04;;;;;;;2.40;1.58;;;;;;;;;;5020058;28;20022;-76
2023/12/28 00:10:30;;;;;;;5.72;1.92;;;;;;;;;;5033527;28;20036;-75
2023/12/28 00:12:57;;;;;;;4.15;1.67;;;;;;;;;;5032429;28;20021;-76
2023/12/28 00:15:23;;;;;;;4.88;1.65;;;;;;;;;;5032396;28;20568;-75
2023/12/28 00:17:49;;;;;;;2.95;1.88;;;;;;;;;;5027598;28;20470;-76
2023/12/28 00:20:16;;;;;;;1.92;1.65;;;;;;;;;;5025199;28;20560;-75
2023/12/28 00:22:42;;;;;;;2.05;1.70;;;;;;;;;;5022859;28;20025;-75
2023/12/28 00:25:08;;;;;;;3.05;1.40;;;;;;;;;;5018267;28;20112;-75
2023/12/28 00:27:37;;;;;;;1.20;1.20;;;;;;;;;;5039357;28;20079;-75
2023/12/28 00:30:04;;;;;;;1.20;1.20;;;;;;;;;;5027827;28;20094;-75
2023/12/28 00:32:31;;;;;;;3.00;2.60;;;;;;;;;;5031164;28;20033;-75
2023/12/28 00:34:57;;;;;;;2.80;1.65;;;;;;;;;;5033288;28;20029;-74
2023/12/28 00:37:26;;;;;;;1.73;1.63;;;;;;;;;;5024075;28;20026;-74
2023/12/28 00:39:52;;;;;;;1.02;1.00;;;;;;;;;;5035708;28;20025;-74
2023/12/28 00:42:19;;;;;;;4.28;1.58;;;;;;;;;;5023611;28;20413;-75
2023/12/28 00:44:45;;;;;;;2.45;1.55;;;;;;;;;;5037632;28;20025;-74
2023/12/28 00:47:12;;;;;;;1.58;1.48;;;;;;;;;;5037860;28;20536;-74
2023/12/28 00:49:38;;;;;;;3.40;1.65;;;;;;;;;;5030802;28;20057;-74
2023/12/28 00:52:05;;;;;;;1.95;1.55;;;;;;;;;;5034578;28;20071;-75
2023/12/28 00:54:31;;;;;;;4.15;2.15;;;;;;;;;;5032966;28;20056;-75
2023/12/28 00:57:00;;;;;;;2.05;1.85;;;;;;;;;;5031943;28;20029;-74
2023/12/28 00:59:26;;;;;;;8.18;1.70;;;;;;;;;;5019693;28;20476;-75
2023/12/28 01:01:52;;;;;;;1.55;1.45;;;;;;;;;;5026203;28;20061;-74
2023/12/28 01:04:18;;;;;;;1.23;1.13;;;;;;;;;;5032168;28;20393;-74
2023/12/28 01:06:47;;;;;;;1.65;1.40;;;;;;;;;;5031504;28;20096;-74
2023/12/28 01:09:13;;;;;;;8.52;1.67;;;;;;;;;;5029094;28;20048;-75
2023/12/28 01:11:40;;;;;;;1.95;1.60;;;;;;;;;;5027433;28;20055;-75
2023/12/28 01:14:06;;;;;;;3.40;1.38;;;;;;;;;;5028874;28;20493;-73
2023/12/28 01:16:32;;;;;;;7.25;2.15;;;;;;;;;;5039425;28;20060;-75
2023/12/28 01:18:58;;;;;;;5.25;1.55;;;;;;;;;;5045021;28;20398;-75
2023/12/28 01:21:25;;;;;;;3.03;1.45;;;;;;;;;;5040830;28;20021;-74
2023/12/28 01:23:51;;;;;;;3.53;1.70;;;;;;;;;;5029768;28;20057;-72
2023/12/28 01:26:18;;;;;;;2.45;1.52;;;;;;;;;;5026584;28;20041;-74
2023/12/28 01:28:44;;;;;;;6.78;1.98;;;;;;;;;;5026079;28;20039;-74
2023/12/28 01:31:10;;;;;;;6.07;2.42;;;;;;;;;;5028352;28;20107;-75
2023/12/28 01:33:37;;;;;;;6.78;1.40;;;;;;;;;;5028340;28;20468;-75
2023/12/28 01:36:03;;;;;;;1.45;1.45;;;;;;;;;;5021455;28;20038;-74
2023/12/28 01:38:29;;;;;;;7.93;2.60;;;;;;;;;;5021953;28;20077;-75
2023/12/28 01:40:56;;;;;;;6.35;1.60;;;;;;;;;;5031885;28;20665;-75
2023/12/28 01:43:24;;;;;;;6.30;2.00;;;;;;;;;;5019750;28;20021;-75
2023/12/28 01:45:50;;;;;;;4.30;1.67;;;;;;;;;;5024193;28;20040;-74
2023/12/28 01:48:17;;;;;;;2.45;1.52;;;;;;;;;;5019853;28;20026;-74
2023/12/28 01:50:43;;;;;;;2.20;2.00;;;;;;;;;;5024866;28;20033;-75
2023/12/28 01:53:09;;;;;;;1.05;1.02;;;;;;;;;;5020185;28;20536;-74
2023/12/28 01:55:35;;;;;;;2.35;2.17;;;;;;;;;;5022294;28;20056;-75
2023/12/28 01:58:02;;;;;;;1.80;1.50;;;;;;;;;;5015823;28;20532;-74
2023/12/28 02:00:32;;;;;;;1.75;1.45;;;;;;;;;;5028884;28;20056;-75
2023/12/28 02:02:58;;;;;;;1.67;1.50;;;;;;;;;;5022603;28;20029;-74
2023/12/28 02:05:25;;;;;;;1.95;1.75;;;;;;;;;;5024918;28;20586;-74
2023/12/28 02:07:51;;;;;;;3.78;1.60;;;;;;;;;;5025705;28;20026;-74
2023/12/28 02:10:17;;;;;;;3.20;1.70;;;;;;;;;;5024274;28;20093;-75
2023/12/28 02:12:43;;;;;;;13.05;2.00;;;;;;;;;;5019916;28;20037;-75
2023/12/28 02:15:10;;;;;;;4.72;1.40;;;;;;;;;;5020217;28;20420;-74
2023/12/28 02:17:59;;;;;;;9.00;2.40;;;;;;;;;;5025076;28;20025;-75
2023/12/28 02:20:28;;;;;;;4.60;1.90;;;;;;;;;;5029135;28;20064;-74
2023/12/28 02:22:57;;;;;;;2.60;1.40;;;;;;;;;;5030906;28;20029;-75
2023/12/28 02:25:24;;;;;;;9.55;1.77;;;;;;;;;;5029779;28;20064;-74
2023/12/28 02:27:50;;;;;;;3.05;1.77;;;;;;;;;;5033312;28;20032;-75
2023/12/28 02:30:17;;;;;;;1.60;1.50;;;;;;;;;;5027338;28;20025;-75
2023/12/28 02:32:53;;;;;;;4.43;1.50;;;;;;;;;;5022555;28;20034;-74
2023/12/28 02:35:20;;;;;;;1.70;1.42;;;;;;;;;;5026504;28;20068;-74
2023/12/28 02:37:48;;;;;;;1.52;1.30;;;;;;;;;;5029551;28;20034;-74
2023/12/28 02:40:16;;;;;;;1.52;1.45;;;;;;;;;;5025873;28;20106;-74
2023/12/28 02:42:42;;;;;;;1.80;1.60;;;;;;;;;;5024045;28;20029;-74
2023/12/28 02:45:09;;;;;;;4.78;1.52;;;;;;;;;;5026941;28;20389;-74
2023/12/28 02:47:35;;;;;;;3.75;1.30;;;;;;;;;;5022005;28;20018;-75
2023/12/28 02:50:01;;;;;;;1.50;1.40;;;;;;;;;;5033003;28;20026;-74
2023/12/28 02:52:28;;;;;;;6.20;2.22;;;;;;;;;;5027819;28;20029;-74
2023/12/28 02:54:54;;;;;;;8.80;1.60;;;;;;;;;;5025096;28;20030;-75
2023/12/28 02:57:20;;;;;;;4.97;1.50;;;;;;;;;;5027681;28;20492;-74
2023/12/28 02:59:46;;;;;;;6.78;1.73;;;;;;;;;;5026193;28;20059;-74
2023/12/28 03:02:13;;;;;;;1.55;1.33;;;;;;;;;;5027004;28;20029;-74
2023/12/28 03:04:39;;;;;;;7.85;1.50;;;;;;;;;;5033688;28;20034;-75
2023/12/28 03:07:09;;;;;;;4.60;1.83;;;;;;;;;;5030028;28;20029;-74
2023/12/28 03:09:38;;;;;;;4.45;1.52;;;;;;;;;;5027552;28;20026;-74
2023/12/28 03:12:05;;;;;;;2.55;1.60;;;;;;;;;;5024585;28;20033;-74
2023/12/28 03:14:31;;;;;;;6.40;1.50;;;;;;;;;;5024190;28;20057;-74
2023/12/28 03:16:57;;;;;;;2.13;1.67;;;;;;;;;;5032771;28;20112;-74
2023/12/28 03:19:23;;;;;;;1.52;1.48;;;;;;;;;;5035460;28;20063;-73
2023/12/28 03:21:50;;;;;;;8.15;2.08;;;;;;;;;;5035811;28;20034;-74
2023/12/28 03:24:16;;;;;;;7.22;2.40;;;;;;;;;;5028719;28;20096;-74
2023/12/28 03:26:42;;;;;;;5.35;2.05;;;;;;;;;;5026502;28;20091;-74
2023/12/28 03:29:08;;;;;;;1.95;1.70;;;;;;;;;;5020188;28;20087;-74
2023/12/28 03:31:39;;;;;;;7.72;2.60;;;;;;;;;;5026654;28;20030;-74
2023/12/28 03:34:05;;;;;;;3.55;1.73;;;;;;;;;;5031988;28;20646;-74
2023/12/28 03:36:34;;;;;;;3.50;1.77;;;;;;;;;;5024906;28;20523;-74
2023/12/28 03:39:00;;;;;;;4.05;1.88;;;;;;;;;;5032840;28;20037;-74
2023/12/28 03:41:27;;;;;;;3.58;1.88;;;;;;;;;;5025998;28;20021;-74
2023/12/28 03:43:53;;;;;;;6.75;1.77;;;;;;;;;;5020584;28;20036;-74
2023/12/28 03:46:19;;;;;;;1.75;1.52;;;;;;;;;;5030388;28;20477;-74
2023/12/28 03:48:45;;;;;;;5.93;1.90;;;;;;;;;;5032064;28;20022;-74
2023/12/28 03:51:15;;;;;;;9.27;1.90;;;;;;;;;;5034913;28;20041;-74
2023/12/28 03:53:42;;;;;;;5.82;1.20;;;;;;;;;;5031354;28;20030;-74
2023/12/28 03:56:08;;;;;;;4.85;1.60;;;;;;;;;;5029867;28;20393;-74
2023/12/28 03:58:34;;;;;;;6.18;1.55;;;;;;;;;;5029537;28;20080;-74
2023/12/28 04:01:00;;;;;;;4.82;1.67;;;;;;;;;;5030014;28;20037;-75
2023/12/28 04:03:27;;;;;;;2.15;1.45;;;;;;;;;;5029994;28;20029;-74
2023/12/28 04:05:53;;;;;;;2.45;1.70;;;;;;;;;;5030006;28;20112;-74
2023/12/28 04:08:20;;;;;;;3.58;3.38;;;;;;;;;;5018718;28;20137;-74
2023/12/28 04:10:46;;;;;;;7.72;1.70;;;;;;;;;;5024990;28;20033;-74
2023/12/28 04:13:13;;;;;;;4.13;1.60;;;;;;;;;;5029085;28;20048;-74
2023/12/28 04:15:42;;;;;;;5.10;1.70;;;;;;;;;;5031631;28;20035;-74
2023/12/28 04:18:08;;;;;;;2.22;1.60;;;;;;;;;;5031500;28;20026;-74
2023/12/28 04:20:35;;;;;;;3.13;1.50;;;;;;;;;;5031440;28;20029;-74
2023/12/28 04:23:01;;;;;;;6.20;1.55;;;;;;;;;;5024138;28;20401;-74
2023/12/28 04:25:27;;;;;;;7.57;1.58;;;;;;;;;;5028779;28;20394;-74
2023/12/28 04:27:54;;;;;;;2.17;1.45;;;;;;;;;;5031316;28;20017;-74
2023/12/28 04:30:20;;;;;;;4.97;1.52;;;;;;;;;;5029242;28;20445;-74
2023/12/28 04:32:46;;;;;;;8.38;2.30;;;;;;;;;;5026505;28;20057;-74
2023/12/28 04:35:12;;;;;;;3.72;2.17;;;;;;;;;;5028105;28;20021;-74
2023/12/28 04:37:39;;;;;;;4.55;1.75;;;;;;;;;;5025461;28;20026;-74
2023/12/28 04:40:05;;;;;;;1.95;1.50;;;;;;;;;;5040612;28;20025;-74
2023/12/28 04:42:32;;;;;;;2.38;1.30;;;;;;;;;;5026666;28;20397;-74
2023/12/28 04:44:58;;;;;;;3.40;2.20;;;;;;;;;;5026543;28;20030;-74
2023/12/28 04:47:24;;;;;;;5.30;2.17;;;;;;;;;;5029991;28;20026;-74
2023/12/28 04:49:50;;;;;;;4.07;1.88;;;;;;;;;;5032997;28;20405;-74
2023/12/28 04:52:17;;;;;;;4.95;2.03;;;;;;;;;;5024219;28;20034;-74
2023/12/28 04:54:50;;;;;;;6.70;1.90;;;;;;;;;;5027639;28;20053;-74
2023/12/28 04:57:17;;;;;;;3.33;1.60;;;;;;;;;;5018055;28;20029;-72
2023/12/28 04:59:43;;;;;;;5.55;1.75;;;;;;;;;;5026709;28;20697;-73
2023/12/28 05:02:09;;;;;;;7.15;3.13;;;;;;;;;;5020462;28;20137;-74
2023/12/28 05:04:38;;;;;;;7.03;2.67;;;;;;;;;;5021659;28;20160;-73
2023/12/28 05:07:05;;;;;;;9.80;2.65;;;;;;;;;;5026264;28;20021;-73
2023/12/28 05:09:31;;;;;;;4.97;1.75;;;;;;;;;;5031011;28;20589;-73
2023/12/28 05:11:57;;;;;;;4.03;1.92;;;;;;;;;;5025000;28;20203;-74
2023/12/28 05:14:23;;;;;;;10.52;2.17;;;;;;;;;;5026481;28;20021;-74
2023/12/28 05:16:50;;;;;;;12.15;2.58;;;;;;;;;;5031423;28;20033;-74
2023/12/28 05:19:16;;;;;;;8.07;2.83;;;;;;;;;;5028684;28;20037;-74
2023/12/28 05:21:43;;;;;;;5.70;2.35;;;;;;;;;;5028420;28;20512;-74
2023/12/28 05:24:09;;;;;;;17.80;2.78;;;;;;;;;;5022166;28;20028;-74
2023/12/28 05:26:35;;;;;;;6.28;2.55;;;;;;;;;;5025996;28;20140;-74
2023/12/28 05:29:01;;;;;;;6.93;1.88;;;;;;;;;;5027873;28;20040;-74
2023/12/28 05:31:28;;;;;;;16.30;2.95;;;;;;;;;;5029493;28;20029;-74
2023/12/28 05:33:54;;;;;;;8.10;2.33;;;;;;;;;;5025419;28;20026;-75
2023/12/28 05:36:20;;;;;;;2.97;2.78;;;;;;;;;;5022191;28;20021;-73
2023/12/28 05:38:47;;;;;;;2.22;1.70;;;;;;;;;;5027985;28;20524;-74
2023/12/28 05:41:13;;;;;;;7.43;1.90;;;;;;;;;;5027650;28;20545;-75
2023/12/28 05:43:43;;;;;;;5.07;2.38;;;;;;;;;;5022907;28;20103;-74
2023/12/28 05:46:14;;;;;;;9.43;2.00;;;;;;;;;;5025736;28;20030;-74
2023/12/28 05:48:40;;;;;;;4.88;2.20;;;;;;;;;;5026864;28;20455;-74
2023/12/28 05:51:06;;;;;;;8.00;2.25;;;;;;;;;;5045732;28;20460;-74
2023/12/28 05:53:32;;;;;;;10.57;2.22;;;;;;;;;;5022970;28;20025;-74
2023/12/28 05:56:03;;;;;;;3.20;1.92;;;;;;;;;;5031002;28;20044;-73
2023/12/28 05:58:29;;;;;;;4.30;2.58;;;;;;;;;;5025028;28;20338;-74
2023/12/28 06:00:55;;;;;;;3.95;2.53;;;;;;;;;;5030486;28;20034;-73
2023/12/28 06:03:27;;;;;;;11.23;2.28;;;;;;;;;;5020385;28;20504;-73
2023/12/28 06:05:54;;;;;;;9.10;2.05;;;;;;;;;;5015986;28;20025;-74
2023/12/28 06:08:20;;;;;;;4.65;2.00;;;;;;;;;;5025590;28;20022;-74
2023/12/28 06:10:46;;;;;;;9.60;1.98;;;;;;;;;;5028929;28;20148;-74
2023/12/28 06:13:13;;;;;;;10.98;2.42;;;;;;;;;;5029917;28;20030;-74
2023/12/28 06:15:43;;;;;;;5.10;2.30;;;;;;;;;;5031669;28;20026;-73
2023/12/28 06:18:09;;;;;;;4.15;2.30;;;;;;;;;;5024762;28;20018;-73
2023/12/28 06:20:36;;;;;;;2.90;2.05;;;;;;;;;;5024076;28;20543;-74
2023/12/28 06:23:02;;;;;;;4.20;2.22;;;;;;;;;;5022130;28;20036;-74
2023/12/28 06:25:28;;;;;;;4.43;2.03;;;;;;;;;;5027307;28;20026;-74
2023/12/28 06:27:55;;;;;;;6.43;1.83;;;;;;;;;;5024247;28;20018;-74
2023/12/28 06:30:21;;;;;;;1.83;1.63;;;;;;;;;;5027055;28;20094;-74
2023/12/28 06:32:47;;;;;;;4.35;2.05;;;;;;;;;;5023309;28;20029;-73
2023/12/28 06:35:13;;;;;;;10.35;2.40;;;;;;;;;;5024386;28;20025;-73
2023/12/28 06:37:39;;;;;;;5.93;1.75;;;;;;;;;;5023231;28;20107;-73
2023/12/28 06:40:06;;;;;;;5.55;1.40;;;;;;;;;;5024678;28;20032;-73
2023/12/28 06:42:32;;;;;;;8.45;1.92;;;;;;;;;;5015336;28;20036;-73
2023/12/28 06:44:58;;;;;;;9.23;2.22;;;;;;;;;;5021349;28;20026;-73
2023/12/28 06:47:25;;;;;;;4.07;2.00;;;;;;;;;;5024038;28;20038;-74
2023/12/28 06:49:51;;;;;;;11.52;2.67;;;;;;;;;;5025661;28;20477;-74
2023/12/28 06:52:17;;;;;;;5.78;2.25;;;;;;;;;;5022462;28;20037;-73
2023/12/28 06:54:51;;;;;;;3.28;1.55;;;;;;;;;;5019352;28;20048;-73
2023/12/28 06:57:18;;;;;;;3.60;1.90;;;;;;;;;;5025455;28;20481;-72
2023/12/28 06:59:44;;;;;;;5.32;1.73;;;;;;;;;;5028250;28;20038;-73
2023/12/28 07:02:10;;;;;;;3.25;2.38;;;;;;;;;;5022605;28;20040;-73
2023/12/28 07:04:36;;;;;;;3.50;1.63;;;;;;;;;;5022805;28;20047;-73
2023/12/28 07:07:03;;;;;;;7.65;2.38;;;;;;;;;;5029900;28;20100;-73
2023/12/28 07:09:29;;;;;;;4.20;1.70;;;;;;;;;;5026308;28;20022;-73
2023/12/28 07:11:55;;;;;;;5.28;1.90;;;;;;;;;;5027766;28;20087;-73
2023/12/28 07:14:22;;;;;;;10.98;2.45;;;;;;;;;;5023208;28;20074;-74
2023/12/28 07:16:48;;;;;;;5.22;2.05;;;;;;;;;;5027769;28;20392;-73
2023/12/28 07:19:14;;;;;;;3.92;1.70;;;;;;;;;;5017155;28;20029;-73
2023/12/28 07:21:40;;;;;;;1.67;1.58;;;;;;;;;;5018608;28;20174;-73
2023/12/28 07:24:07;;;;;;;2.03;1.83;;;;;;;;;;5021679;28;20037;-74
2023/12/28 07:26:33;;;;;;;3.30;2.30;;;;;;;;;;5025427;28;20032;-73
2023/12/28 07:28:59;;;;;;;4.90;2.00;;;;;;;;;;5019532;28;20040;-73
2023/12/28 07:31:26;;;;;;;8.45;1.80;;;;;;;;;;5022140;28;20434;-73
2023/12/28 07:33:53;;;;;;;5.38;1.48;;;;;;;;;;5027753;28;20057;-72
2023/12/28 07:36:19;;;;;;;3.85;1.40;;;;;;;;;;5022378;28;20017;-72
2023/12/28 07:38:45;;;;;;;2.88;1.30;;;;;;;;;;5025885;28;20266;-73
2023/12/28 07:41:11;;;;;;;2.60;1.42;;;;;;;;;;5020841;28;20572;-73
2023/12/28 07:43:38;;;;;;;1.38;1.30;;;;;;;;;;5024598;28;20022;-73
2023/12/28 07:46:04;;;;;;;3.50;1.63;;;;;;;;;;5020811;28;20055;-73
2023/12/28 07:48:30;;;;;;;1.67;1.55;;;;;;;;;;5024219;28;20026;-72
2023/12/28 07:50:57;;;;;;;3.95;1.55;;;;;;;;;;5027433;28;20033;-72
2023/12/28 07:53:24;;;;;;;1.73;1.30;;;;;;;;;;5027765;28;20445;-73
2023/12/28 07:55:50;;;;;;;1.23;1.20;;;;;;;;;;5024973;28;20057;-73
2023/12/28 07:58:16;;;;;;;2.65;1.88;;;;;;;;;;5020877;28;20060;-72
2023/12/28 08:00:43;;;;;;;1.55;1.45;;;;;;;;;;5023424;28;20029;-73
2023/12/28 08:03:09;;;;;;;1.63;1.45;;;;;;;;;;5024104;28;20484;-72
2023/12/28 08:05:35;;;;;;;4.93;1.67;;;;;;;;;;5024196;28;20109;-73
2023/12/28 08:08:02;;;;;;;3.75;1.70;;;;;;;;;;5026269;28;20101;-73
2023/12/28 08:10:28;;;;;;;4.25;1.80;;;;;;;;;;5029638;28;20063;-72
2023/12/28 08:12:55;;;;;;;5.03;1.77;;;;;;;;;;5032356;28;20034;-73
2023/12/28 08:15:21;;;;;;;4.63;1.60;;;;;;;;;;5022822;28;20429;-72
2023/12/28 08:17:50;;;;;;;3.35;1.58;;;;;;;;;;5028160;28;20695;-73
2023/12/28 08:20:17;;;;;;;1.52;1.35;;;;;;;;;;5028333;28;20081;-73
2023/12/28 08:22:43;;;;;;;2.58;1.88;;;;;;;;;;5024262;28;20037;-73
2023/12/28 08:25:10;;;;;;;1.27;1.27;;;;;;;;;;5028741;28;20033;-73
2023/12/28 08:27:36;;;;;;;2.30;2.10;;;;;;;;;;5025963;28;20045;-73
2023/12/28 08:30:03;;;;;;;2.92;2.15;;;;;;;;;;5023692;28;20033;-73
2023/12/28 08:32:30;;;;;;;1.88;1.67;;;;;;;;;;5025289;28;20029;-73
2023/12/28 08:34:56;;;;;;;4.18;1.63;;;;;;;;;;5029412;28;20033;-73
2023/12/28 08:37:25;;;;;;;2.50;1.65;;;;;;;;;;5024345;28;20036;-72
2023/12/28 08:39:51;;;;;;;5.15;1.83;;;;;;;;;;5025689;28;20397;-72
2023/12/28 08:42:18;;;;;;;6.45;2.70;;;;;;;;;;5028725;28;20402;-73
2023/12/28 08:44:44;;;;;;;6.97;1.60;;;;;;;;;;5039695;28;20084;-72
2023/12/28 08:47:10;;;;;;;7.32;1.92;;;;;;;;;;5022730;28;20172;-72
2023/12/28 08:49:36;;;;;;;3.22;1.25;;;;;;;;;;5027791;28;20052;-73
2023/12/28 08:52:02;;;;;;;5.15;1.70;;;;;;;;;;5025865;28;20040;-73
2023/12/28 08:54:29;;;;;;;1.50;1.40;;;;;;;;;;5023997;28;20029;-73
2023/12/28 08:56:55;;;;;;;4.57;1.88;;;;;;;;;;5023983;28;20025;-72
2023/12/28 08:59:21;;;;;;;5.20;1.63;;;;;;;;;;5022549;28;20064;-73
2023/12/28 09:01:47;;;;;;;5.20;2.00;;;;;;;;;;5021640;28;20165;-73
2023/12/28 09:04:14;;;;;;;5.00;2.25;;;;;;;;;;5031517;28;20033;-73
2023/12/28 09:06:40;;;;;;;4.75;1.92;;;;;;;;;;5029560;28;20029;-72
2023/12/28 09:09:06;;;;;;;4.18;1.85;;;;;;;;;;5026721;28;20039;-72
2023/12/28 09:11:33;;;;;;;2.75;1.85;;;;;;;;;;5025948;28;20029;-73
2023/12/28 09:13:59;;;;;;;12.00;2.40;;;;;;;;;;5030218;28;20030;-73
2023/12/28 09:16:26;;;;;;;3.30;1.85;;;;;;;;;;5023360;28;20021;-73
2023/12/28 09:18:52;;;;;;;11.38;2.10;;;;;;;;;;5016748;28;20033;-74
2023/12/28 09:21:18;;;;;;;9.23;1.90;;;;;;;;;;5024353;28;20037;-74
2023/12/28 09:23:44;;;;;;;7.07;2.88;;;;;;;;;;5032880;28;20049;-76
2023/12/28 09:26:11;;;;;;;2.95;1.70;;;;;;;;;;5027539;28;20097;-76
2023/12/28 09:28:37;;;;;;;3.20;2.85;;;;;;;;;;5022923;28;20025;-77
2023/12/28 09:31:04;;;;;;;4.80;2.15;;;;;;;;;;5026961;28;20489;-76
2023/12/28 09:33:30;;;;;;;9.75;2.58;;;;;;;;;;5028475;28;20037;-76
2023/12/28 09:35:56;;;;;;;6.45;2.38;;;;;;;;;;5027896;28;20029;-75
2023/12/28 09:38:23;;;;;;;9.57;2.55;;;;;;;;;;5024924;28;20029;-75
2023/12/28 09:40:53;;;;;;;2.50;1.65;;;;;;;;;;5026848;28;20838;-75
2023/12/28 09:43:19;;;;;;;2.78;1.70;;;;;;;;;;5024249;28;20460;-75
2023/12/28 09:45:49;;;;;;;2.45;2.15;;;;;;;;;;5021233;28;20079;-75
2023/12/28 09:48:19;;;;;;;2.25;1.42;;;;;;;;;;5029641;28;20026;-74
2023/12/28 09:50:55;;;;;;;3.75;1.80;;;;;;;;;;5025064;28;20029;-75
2023/12/28 09:53:24;;;;;;;7.78;2.17;;;;;;;;;;5016145;28;20064;-74
2023/12/28 09:55:51;;;;;;;4.80;1.83;;;;;;;;;;5027374;28;20060;-75
2023/12/28 09:58:19;;;;;;;2.08;1.30;;;;;;;;;;5029039;28;20493;-75
2023/12/28 10:00:46;;;;;;;3.50;1.40;;;;;;;;;;5026943;28;20038;-74
2023/12/28 10:03:15;;;;;;;1.75;1.50;;;;;;;;;;5026870;28;20053;-74
2023/12/28 10:05:42;;;;;;;2.10;1.35;;;;;;;;;;5020089;28;20029;-74
2023/12/28 10:08:09;;;;;;;1.20;1.20;;;;;;;;;;5025466;28;20054;-74
2023/12/28 10:10:35;;;;;;;2.65;1.88;;;;;;;;;;5023674;28;20025;-74
2023/12/28 10:13:02;;;;;;;1.17;1.17;;;;;;;;;;5018524;28;20107;-74
2023/12/28 10:15:28;;;;;;;1.38;1.27;;;;;;;;;;5016854;28;20076;-74
2023/12/28 10:17:54;;;;;;;1.55;1.20;;;;;;;;;;5028639;28;20081;-74
2023/12/28 10:20:20;;;;;;;3.03;1.60;;;;;;;;;;5024053;28;20026;-74
2023/12/28 10:22:47;;;;;;;4.32;1.70;;;;;;;;;;5030732;28;20033;-74
2023/12/28 10:25:14;;;;;;;1.17;1.17;;;;;;;;;;5022544;28;20044;-74
2023/12/28 10:27:43;;;;;;;4.75;1.23;;;;;;;;;;5013755;28;20033;-74
2023/12/28 10:30:10;;;;;;;1.60;1.38;;;;;;;;;;5023625;28;20079;-74
2023/12/28 10:32:46;;;;;;;2.17;1.02;;;;;;;;;;5015945;28;20642;-73
2023/12/28 10:35:12;;;;;;;1.67;1.58;;;;;;;;;;5031025;28;20453;-74
2023/12/28 10:37:42;;;;;;;1.63;1.20;;;;;;;;;;5031809;28;20402;-74
2023/12/28 10:40:12;;;;;;;1.40;1.30;;;;;;;;;;5024318;28;20017;-73
2023/12/28 10:42:47;;;;;;;2.08;1.38;;;;;;;;;;5038297;28;20037;-73
2023/12/28 10:45:16;;;;;;;3.47;1.25;;;;;;;;;;5032299;28;20318;-74
2023/12/28 10:47:53;;;;;;;1.73;1.33;;;;;;;;;;5031851;28;20140;-74
2023/12/28 10:50:20;;;;;;;3.75;1.30;;;;;;;;;;5017799;28;20588;-74
2023/12/28 10:52:51;;;;;;;1.10;1.10;;;;;;;;;;5031241;28;20044;-74
2023/12/28 10:55:23;;;;;;;1.05;1.05;;;;;;;;;;5014236;28;20030;-74
2023/12/28 10:57:57;;;;;;;2.03;1.30;;;;;;;;;;5024749;28;20068;-74
2023/12/28 11:00:25;;;;;;;3.17;1.60;;;;;;;;;;5033499;28;20041;-73
2023/12/28 11:03:03;;;;;;;1.27;1.17;;;;;;;;;;5022949;28;20029;-75
2023/12/28 11:05:30;;;;;;;4.72;1.50;;;;;;;;;;5022260;28;20052;-73
2023/12/28 11:07:58;;;;;;;2.15;1.73;;;;;;;;;;5022746;28;20489;-73
2023/12/28 11:10:25;;;;;;;4.15;1.52;;;;;;;;;;5028766;28;20144;-73
2023/12/28 11:12:53;;;;;;;2.22;2.00;;;;;;;;;;5028373;28;20036;-74
2023/12/28 11:15:19;;;;;;;2.05;1.55;;;;;;;;;;5027685;28;20505;-73
2023/12/28 11:17:46;;;;;;;8.25;1.90;;;;;;;;;;5025707;28;20378;-74
2023/12/28 11:20:13;;;;;;;1.95;1.48;;;;;;;;;;5032188;28;20030;-74
2023/12/28 11:22:40;;;;;;;2.35;1.30;;;;;;;;;;5029958;28;20022;-74
2023/12/28 11:25:07;;;;;;;2.03;1.42;;;;;;;;;;5036235;28;20033;-73
2023/12/28 11:27:36;;;;;;;2.08;1.80;;;;;;;;;;5032863;28;20113;-74
2023/12/28 11:30:06;;;;;;;1.50;1.40;;;;;;;;;;5028344;28;20538;-74
2023/12/28 11:32:39;;;;;;;2.47;1.83;;;;;;;;;;5030320;28;20085;-73
2023/12/28 11:35:11;;;;;;;8.55;1.70;;;;;;;;;;5022981;28;20029;-74
2023/12/28 11:37:39;;;;;;;2.20;1.33;;;;;;;;;;5029951;28;20034;-74
2023/12/28 11:40:14;;;;;;;1.95;1.67;;;;;;;;;;5028686;28;20048;-73
2023/12/28 11:42:49;;;;;;;1.65;1.52;;;;;;;;;;5031498;28;20555;-74
2023/12/28 11:45:17;;;;;;;7.73;2.10;;;;;;;;;;5035523;28;20071;-74
2023/12/28 11:47:44;;;;;;;7.03;2.00;;;;;;;;;;5028042;28;20312;-73
2023/12/28 11:50:10;;;;;;;2.42;1.70;;;;;;;;;;5032678;28;20021;-73
2023/12/28 11:52:36;;;;;;;7.95;2.05;;;;;;;;;;5025133;28;20033;-73
2023/12/28 11:55:04;;;;;;;3.22;2.30;;;;;;;;;;5023727;28;20410;-75
2023/12/28 11:57:31;;;;;;;5.88;2.53;;;;;;;;;;5026910;28;20095;-75
2023/12/28 11:59:58;;;;;;;3.13;1.60;;;;;;;;;;5021547;28;20210;-76
2023/12/28 12:02:25;;;;;;;8.85;3.50;;;;;;;;;;5028546;28;20100;-75
2023/12/28 12:04:51;;;;;;;2.22;1.75;;;;;;;;;;5024607;28;20026;-75
2023/12/28 12:07:17;;;;;;;2.80;1.60;;;;;;;;;;5021613;28;20033;-76
2023/12/28 12:09:44;;;;;;;3.33;1.65;;;;;;;;;;5030256;28;20026;-75
2023/12/28 12:12:10;;;;;;;2.80;2.30;;;;;;;;;;5028428;28;20017;-74
2023/12/28 12:14:37;;;;;;;3.60;1.98;;;;;;;;;;5033801;28;20026;-75
2023/12/28 12:17:04;;;;;;;10.30;2.72;;;;;;;;;;5034157;28;20048;-75
2023/12/28 12:19:30;;;;;;;1.75;1.65;;;;;;;;;;5027560;28;20029;-75
2023/12/28 12:21:57;;;;;;;3.72;2.28;;;;;;;;;;5028483;28;20034;-74
2023/12/28 12:24:24;;;;;;;10.43;2.45;;;;;;;;;;5030151;28;20034;-74
2023/12/28 12:26:50;;;;;;;5.18;2.03;;;;;;;;;;5045055;28;20036;-74
2023/12/28 12:29:17;;;;;;;9.35;1.98;;;;;;;;;;5030062;28;20168;-74
2023/12/28 12:31:47;;;;;;;7.47;1.95;;;;;;;;;;5031521;28;20030;-74
2023/12/28 12:34:16;;;;;;;3.25;1.83;;;;;;;;;;5025970;28;20433;-74
2023/12/28 12:36:42;;;;;;;3.50;1.95;;;;;;;;;;5034049;28;20117;-74
2023/12/28 12:39:11;;;;;;;3.70;1.75;;;;;;;;;;5031494;28;20021;-74
2023/12/28 12:41:38;;;;;;;4.65;2.33;;;;;;;;;;5023146;28;20030;-75
2023/12/28 12:44:05;;;;;;;3.47;2.35;;;;;;;;;;5023014;28;20156;-74
2023/12/28 12:46:31;;;;;;;6.13;2.17;;;;;;;;;;5020444;28;20025;-74
2023/12/28 12:48:58;;;;;;;3.55;3.08;;;;;;;;;;5026085;28;20783;-74
2023/12/28 12:51:25;;;;;;;3.97;1.70;;;;;;;;;;5026585;28;20025;-74
2023/12/28 12:53:56;;;;;;;6.50;3.13;;;;;;;;;;5028815;28;20056;-74
2023/12/28 12:56:22;;;;;;;3.78;2.00;;;;;;;;;;5031063;28;20037;-74
2023/12/28 12:58:49;;;;;;;3.53;1.95;;;;;;;;;;5034613;28;20394;-74
2023/12/28 13:01:15;;;;;;;6.78;2.17;;;;;;;;;;5028734;28;20030;-74
2023/12/28 13:03:42;;;;;;;10.20;3.33;;;;;;;;;;5024247;28;20482;-74
2023/12/28 13:06:08;;;;;;;11.05;2.60;;;;;;;;;;5024508;28;20026;-74
2023/12/28 13:08:34;;;;;;;8.85;2.13;;;;;;;;;;5030488;28;20026;-74
2023/12/28 13:11:00;;;;;;;5.22;1.90;;;;;;;;;;5031630;28;20084;-73
2023/12/28 13:13:27;;;;;;;3.60;2.05;;;;;;;;;;5032503;28;20080;-74
2023/12/28 13:15:53;;;;;;;3.78;2.05;;;;;;;;;;5031846;28;20029;-74
2023/12/28 13:18:22;;;;;;;4.75;2.00;;;;;;;;;;5030794;28;20021;-74
2023/12/28 13:20:48;;;;;;;3.95;2.00;;;;;;;;;;5027646;28;20038;-74
2023/12/28 13:23:14;;;;;;;3.25;2.10;;;;;;;;;;5030491;28;20017;-74
2023/12/28 13:25:41;;;;;;;7.90;2.60;;;;;;;;;;5024885;28;20017;-74
2023/12/28 13:28:08;;;;;;;3.45;1.80;;;;;;;;;;5023563;28;20026;-73
2023/12/28 13:30:36;;;;;;;3.42;1.90;;;;;;;;;;5026258;28;20460;-73
2023/12/28 13:33:03;;;;;;;4.15;2.10;;;;;;;;;;5041677;28;20025;-72
2023/12/28 13:35:29;;;;;;;4.50;2.90;;;;;;;;;;5028427;28;20481;-73
2023/12/28 13:38:01;;;;;;;3.80;2.40;;;;;;;;;;5021090;28;20462;-73
2023/12/28 13:40:27;;;;;;;7.13;2.25;;;;;;;;;;5029012;28;20025;-73
2023/12/28 13:42:53;;;;;;;4.72;2.72;;;;;;;;;;5025058;28;20097;-72
2023/12/28 13:45:19;;;;;;;5.65;2.13;;;;;;;;;;5015169;28;20033;-72
2023/12/28 13:47:46;;;;;;;7.50;2.50;;;;;;;;;;5022273;28;20492;-73
2023/12/28 13:50:12;;;;;;;8.93;2.63;;;;;;;;;;5024363;28;20588;-72
2023/12/28 13:52:39;;;;;;;6.93;2.10;;;;;;;;;;5026136;28;20037;-72
2023/12/28 13:55:05;;;;;;;7.43;2.38;;;;;;;;;;5023924;28;20426;-72
2023/12/28 13:57:32;;;;;;;4.47;1.83;;;;;;;;;;5019131;28;20074;-72
2023/12/28 14:00:00;;;;;;;2.38;1.70;;;;;;;;;;5023675;28;20145;-73
2023/12/28 14:02:26;;;;;;;3.08;2.15;;;;;;;;;;5017721;28;20437;-72
2023/12/28 14:04:55;;;;;;;5.80;2.63;;;;;;;;;;5023829;28;20029;-72
2023/12/28 14:07:22;;;;;;;5.78;1.88;;;;;;;;;;5023279;28;20037;-72
2023/12/28 14:09:48;;;;;;;9.10;2.15;;;;;;;;;;5024316;28;20025;-73
2023/12/28 14:12:14;;;;;;;10.50;2.40;;;;;;;;;;5025353;28;20040;-72
2023/12/28 14:14:40;;;;;;;3.50;1.70;;;;;;;;;;5024893;28;20067;-72
2023/12/28 14:17:07;;;;;;;4.93;1.60;;;;;;;;;;5027440;28;20523;-73
2023/12/28 14:19:33;;;;;;;4.68;1.67;;;;;;;;;;5058578;28;20526;-73
2023/12/28 14:22:01;;;;;;;10.57;2.53;;;;;;;;;;5028466;28;20029;-70
2023/12/28 14:24:27;;;;;;;3.25;1.73;;;;;;;;;;5018514;28;20022;-66
2023/12/28 14:26:54;;;;;;;4.97;1.95;;;;;;;;;;5021390;28;20155;-68
2023/12/28 14:29:21;;;;;;;10.73;2.30;;;;;;;;;;5016040;28;20022;-67
2023/12/28 14:31:48;;;;;;;6.55;2.10;;;;;;;;;;5010699;28;20034;-67
2023/12/28 14:34:14;;;;;;;6.60;2.13;;;;;;;;;;5023204;28;20029;-66
2023/12/28 14:36:40;;;;;;;4.35;2.00;;;;;;;;;;5014515;28;20128;-66
2023/12/28 14:39:08;;;;;;;4.45;3.05;;;;;;;;;;5010601;28;20127;-67
2023/12/28 14:41:38;;;;;;;8.90;3.47;;;;;;;;;;5021379;28;20482;-66